createdAt,value
2018-09-22T00:02:50.390Z,54.50
2018-09-22T00:05:53.642Z,56.50
2018-09-22T00:08:56.582Z,57.10
2018-09-22T00:11:59.489Z,57.70
2018-09-22T00:15:02.422Z,57.70
2018-09-22T00:18:05.476Z,57.70
2018-09-22T00:21:08.398Z,57.40
2018-09-22T00:24:11.329Z,57.60
2018-09-22T00:27:14.343Z,57.60
2018-09-22T00:30:17.256Z,60.10
2018-09-22T00:33:20.210Z,62.40
2018-09-22T00:36:23.162Z,62.60
2018-09-22T00:39:26.083Z,57.60
2018-09-22T00:42:29.028Z,56.90
2018-09-22T00:45:31.957Z,55.90
2018-09-22T00:48:34.838Z,54.10
2018-09-22T00:51:37.765Z,53.50
2018-09-22T00:54:40.646Z,53.20
2018-09-22T00:57:43.617Z,53.00
2018-09-22T01:00:46.521Z,52.30
2018-09-22T01:03:49.480Z,53.90
2018-09-22T01:06:52.422Z,52.60
2018-09-22T01:09:55.345Z,52.50
2018-09-22T01:12:58.325Z,55.00
2018-09-22T01:16:01.236Z,57.50
2018-09-22T01:19:04.285Z,60.60
2018-09-22T01:22:07.217Z,60.00
2018-09-22T01:25:10.161Z,61.20
2018-09-22T01:28:13.034Z,62.60
2018-09-22T01:31:15.992Z,63.60
2018-09-22T01:34:18.926Z,63.00
2018-09-22T01:37:21.856Z,62.30
2018-09-22T01:40:24.742Z,63.30
2018-09-22T01:43:27.655Z,63.70
2018-09-22T01:46:30.663Z,62.40
2018-09-22T01:49:33.577Z,62.60
2018-09-22T01:52:36.517Z,63.30
2018-09-22T01:55:39.406Z,63.00
2018-09-22T01:58:42.358Z,59.30
2018-09-22T02:01:45.304Z,55.90
2018-09-22T02:04:48.242Z,59.60
2018-09-22T02:07:51.136Z,62.20
2018-09-22T02:10:54.056Z,65.00
2018-09-22T02:13:57.296Z,65.20
2018-09-22T02:17:00.218Z,66.40
2018-09-22T02:20:03.202Z,66.10
2018-09-22T02:23:07.224Z,65.70
2018-09-22T02:26:10.560Z,66.50
2018-09-22T02:29:13.958Z,67.10
2018-09-22T02:32:17.010Z,66.90
2018-09-22T02:35:19.961Z,66.50
2018-09-22T02:38:22.882Z,66.80
2018-09-22T02:41:25.885Z,67.70
2018-09-22T02:44:28.837Z,67.40
2018-09-22T02:47:31.733Z,67.40
2018-09-22T02:50:34.634Z,66.30
2018-09-22T02:53:37.551Z,65.70
2018-09-22T02:56:40.458Z,66.20
2018-09-22T02:59:43.444Z,66.40
2018-09-22T03:02:46.381Z,65.80
2018-09-22T03:05:49.353Z,66.00
2018-09-22T03:08:52.272Z,66.20
2018-09-22T03:11:55.181Z,67.00
2018-09-22T03:14:58.165Z,66.10
2018-09-22T03:18:01.075Z,67.20
2018-09-22T03:21:04.025Z,67.50
2018-09-22T03:24:07.777Z,66.30
2018-09-22T03:27:10.796Z,66.70
2018-09-22T03:30:13.801Z,67.00
2018-09-22T03:33:16.694Z,66.90
2018-09-22T03:36:19.665Z,66.90
2018-09-22T03:39:22.603Z,66.90
2018-09-22T03:42:25.641Z,66.70
2018-09-22T03:45:28.545Z,66.30
2018-09-22T03:48:31.502Z,66.70
2018-09-22T03:51:34.425Z,65.80
2018-09-22T03:54:37.297Z,65.70
2018-09-22T03:57:40.186Z,65.50
2018-09-22T04:00:44.710Z,64.80
2018-09-22T04:03:47.647Z,66.50
2018-09-22T04:06:50.821Z,66.30
2018-09-22T04:09:53.757Z,66.00
2018-09-22T04:12:56.701Z,65.70
2018-09-22T04:15:59.614Z,65.80
2018-09-22T04:19:02.549Z,65.60
2018-09-22T04:22:05.489Z,65.80
2018-09-22T04:25:08.461Z,65.20
2018-09-22T04:28:11.362Z,65.90
2018-09-22T04:31:14.277Z,65.80
2018-09-22T04:34:17.505Z,65.70
2018-09-22T04:37:20.441Z,66.40
2018-09-22T04:40:23.424Z,65.80
2018-09-22T04:43:26.456Z,65.30
2018-09-22T04:46:29.448Z,65.70
2018-09-22T04:49:32.410Z,66.70
2018-09-22T04:52:35.380Z,66.40
2018-09-22T04:55:38.318Z,66.10
2018-09-22T04:58:41.207Z,65.80
2018-09-22T05:01:44.195Z,65.70
2018-09-22T05:04:47.087Z,65.40
2018-09-22T05:07:49.982Z,65.80
2018-09-22T05:10:53.660Z,65.90
2018-09-22T05:13:56.611Z,65.40
2018-09-22T05:16:59.514Z,65.60
2018-09-22T05:20:02.532Z,66.40
2018-09-22T05:23:35.022Z,66.20
2018-09-22T05:28:09.378Z,66.40
2018-09-22T05:31:52.626Z,65.70
2018-09-22T05:34:55.608Z,65.50
2018-09-22T05:37:58.564Z,65.10
2018-09-22T05:41:01.466Z,65.10
2018-09-22T05:44:04.553Z,65.70
2018-09-22T05:47:07.497Z,65.70
2018-09-22T05:50:10.442Z,66.20
2018-09-22T05:53:13.383Z,65.90
2018-09-22T05:56:16.314Z,66.20
2018-09-22T05:59:19.241Z,66.10
2018-09-22T06:02:22.213Z,66.20
2018-09-22T06:05:25.158Z,66.10
2018-09-22T06:08:28.064Z,66.80
2018-09-22T06:11:31.017Z,65.60
2018-09-22T06:14:33.938Z,66.80
2018-09-22T06:17:36.877Z,66.80
2018-09-22T06:20:39.825Z,66.30
2018-09-22T06:23:42.789Z,65.80
2018-09-22T06:26:45.746Z,66.30
2018-09-22T06:29:48.744Z,65.90
2018-09-22T06:32:51.706Z,66.20
2018-09-22T06:35:54.717Z,66.40
2018-09-22T06:38:57.777Z,65.70
2018-09-22T06:42:01.296Z,66.30
2018-09-22T06:45:04.312Z,65.60
2018-09-22T06:48:07.865Z,65.50
2018-09-22T06:51:10.778Z,65.50
2018-09-22T06:54:14.149Z,65.20
2018-09-22T06:57:17.180Z,65.00
2018-09-22T07:00:20.556Z,65.70
2018-09-22T07:03:24.064Z,65.70
2018-09-22T07:06:27.023Z,65.90
2018-09-22T07:09:29.911Z,65.10
2018-09-22T07:12:32.866Z,65.00
2018-09-22T07:15:35.821Z,64.60
2018-09-22T07:18:38.814Z,64.50
2018-09-22T07:21:47.293Z,63.80
2018-09-22T07:24:50.220Z,64.80
2018-09-22T07:27:53.135Z,64.70
2018-09-22T07:30:56.253Z,65.60
2018-09-22T07:33:59.186Z,65.20
2018-09-22T07:37:02.178Z,64.70
2018-09-22T07:40:05.177Z,63.70
2018-09-22T07:43:08.126Z,64.20
2018-09-22T07:46:11.029Z,64.00
2018-09-22T07:49:13.977Z,64.00
2018-09-22T07:52:17.098Z,64.60
2018-09-22T07:55:20.065Z,63.50
2018-09-22T07:58:22.994Z,64.40
2018-09-22T08:01:46.073Z,63.40
2018-09-22T08:08:58.055Z,63.70
2018-09-22T08:12:51.733Z,63.50
2018-09-22T08:15:54.781Z,63.90
2018-09-22T08:18:57.731Z,64.00
2018-09-22T08:22:00.685Z,63.10
2018-09-22T08:25:03.653Z,63.30
2018-09-22T08:28:06.702Z,64.00
2018-09-22T08:31:09.595Z,64.00
2018-09-22T08:34:12.570Z,63.50
2018-09-22T08:37:15.784Z,63.70
2018-09-22T08:40:18.704Z,63.40
2018-09-22T08:43:21.609Z,62.60
2018-09-22T08:46:24.580Z,62.60
2018-09-22T08:49:27.495Z,62.70
2018-09-22T08:52:30.421Z,61.20
2018-09-22T08:55:33.338Z,61.70
2018-09-22T08:58:36.252Z,60.90
2018-09-22T09:01:39.200Z,61.60
2018-09-22T09:04:42.169Z,61.40
2018-09-22T09:07:45.130Z,62.10
2018-09-22T09:10:48.303Z,60.70
2018-09-22T09:13:51.284Z,61.20
2018-09-22T09:16:54.322Z,61.10
2018-09-22T09:19:57.225Z,61.20
2018-09-22T09:23:00.191Z,60.00
2018-09-22T09:26:03.098Z,59.00
2018-09-22T09:29:06.002Z,58.60
2018-09-22T09:32:09.018Z,59.60
2018-09-22T09:35:11.930Z,58.20
2018-09-22T09:38:14.854Z,59.40
2018-09-22T09:41:17.769Z,58.60
2018-09-22T09:44:20.708Z,57.70
2018-09-22T09:47:23.606Z,57.60
2018-09-22T09:50:26.502Z,57.10
2018-09-22T09:53:29.754Z,56.00
2018-09-22T09:56:32.606Z,56.60
2018-09-22T09:59:35.521Z,55.40
2018-09-22T10:02:38.477Z,55.20
2018-09-22T10:05:41.513Z,54.60
2018-09-22T10:08:44.393Z,54.80
2018-09-22T10:11:47.376Z,55.20
2018-09-22T10:14:50.245Z,54.50
2018-09-22T10:17:53.192Z,54.50
2018-09-22T10:20:56.129Z,54.80
2018-09-22T10:23:59.011Z,53.80
2018-09-22T10:27:01.983Z,53.30
2018-09-22T10:30:05.996Z,53.10
2018-09-22T10:33:08.919Z,54.40
2018-09-22T10:36:11.846Z,52.40
2018-09-22T10:39:14.755Z,51.80
2018-09-22T10:42:17.817Z,51.00
2018-09-22T10:45:20.710Z,51.70
2018-09-22T10:48:23.685Z,52.60
2018-09-22T10:51:26.613Z,52.10
2018-09-22T10:54:29.566Z,50.90
2018-09-22T10:57:32.478Z,51.10
2018-09-22T11:00:35.367Z,50.20
2018-09-22T11:03:38.297Z,49.90
2018-09-22T11:06:41.216Z,48.50
2018-09-22T11:09:44.140Z,48.20
2018-09-22T11:12:47.025Z,49.30
2018-09-22T11:15:50.084Z,47.70
2018-09-22T11:18:53.017Z,48.40
2018-09-22T11:21:55.922Z,48.20
2018-09-22T11:24:58.842Z,49.70
2018-09-22T11:28:01.742Z,48.60
2018-09-22T11:31:04.745Z,48.30
2018-09-22T11:34:07.692Z,53.70
2018-09-22T11:37:10.605Z,51.70
2018-09-22T11:40:13.538Z,49.20
2018-09-22T11:43:16.508Z,50.40
2018-09-22T11:46:19.449Z,49.70
2018-09-22T11:49:22.416Z,49.30
2018-09-22T11:52:25.373Z,49.20
2018-09-22T11:55:28.356Z,49.50
2018-09-22T11:58:31.299Z,50.10
2018-09-22T12:01:34.217Z,48.90
2018-09-22T12:04:37.085Z,49.20
2018-09-22T12:07:40.009Z,50.10
2018-09-22T12:10:42.914Z,50.20
2018-09-22T12:13:45.807Z,49.20
2018-09-22T12:16:48.743Z,50.50
2018-09-22T12:19:51.737Z,50.20
2018-09-22T12:22:54.669Z,50.10
2018-09-22T12:25:57.573Z,49.70
2018-09-22T12:29:00.545Z,50.60
2018-09-22T12:32:03.692Z,51.00
2018-09-22T12:35:06.511Z,50.40
2018-09-22T12:38:09.473Z,50.20
2018-09-22T12:41:12.380Z,51.10
2018-09-22T12:44:15.336Z,52.20
2018-09-22T12:47:18.277Z,52.80
2018-09-22T12:50:21.210Z,54.40
2018-09-22T12:53:24.116Z,55.70
2018-09-22T12:56:27.061Z,56.40
2018-09-22T12:59:29.998Z,55.00
2018-09-22T13:02:32.890Z,54.40
2018-09-22T13:05:35.831Z,54.60
2018-09-22T13:08:38.766Z,52.10
2018-09-22T13:11:41.685Z,52.10
2018-09-22T13:14:44.611Z,51.60
2018-09-22T13:17:47.517Z,52.20
2018-09-22T13:20:50.414Z,52.30
2018-09-22T13:23:53.330Z,51.90
2018-09-22T13:26:56.383Z,51.90
2018-09-22T13:29:59.202Z,52.60
2018-09-22T13:33:02.153Z,51.50
2018-09-22T13:36:05.315Z,52.10
2018-09-22T13:39:10.709Z,52.20
2018-09-22T13:42:13.629Z,52.80
2018-09-22T13:45:16.577Z,53.30
2018-09-22T13:48:19.510Z,53.80
2018-09-22T13:51:22.439Z,54.20
2018-09-22T13:54:25.361Z,54.50
2018-09-22T13:57:28.282Z,54.30
2018-09-22T14:00:31.158Z,55.60
2018-09-22T14:03:34.108Z,54.80
2018-09-22T14:06:36.983Z,54.40
2018-09-22T14:09:39.891Z,54.50
2018-09-22T14:12:42.775Z,54.50
2018-09-22T14:15:45.700Z,55.00
2018-09-22T14:18:48.768Z,54.60
2018-09-22T14:21:51.606Z,54.90
2018-09-22T14:24:54.576Z,54.60
2018-09-22T14:27:57.543Z,54.90
2018-09-22T14:31:00.445Z,55.30
2018-09-22T14:34:03.404Z,54.80
2018-09-22T14:37:06.092Z,55.00
2018-09-22T14:40:09.046Z,55.30
2018-09-22T14:43:11.922Z,56.70
2018-09-22T14:46:14.861Z,55.80
2018-09-22T14:49:17.773Z,54.20
2018-09-22T14:52:20.730Z,55.40
2018-09-22T14:55:23.621Z,55.80
2018-09-22T14:58:26.510Z,56.70
2018-09-22T15:01:29.498Z,57.60
2018-09-22T15:04:32.432Z,56.60
2018-09-22T15:07:35.369Z,57.00
2018-09-22T15:10:38.261Z,57.30
2018-09-22T15:13:41.189Z,58.20
2018-09-22T15:16:44.142Z,59.40
2018-09-22T15:19:47.066Z,60.30
2018-09-22T15:22:49.980Z,59.60
2018-09-22T15:25:52.904Z,59.30
2018-09-22T15:28:55.933Z,59.70
2018-09-22T15:31:58.865Z,62.20
2018-09-22T15:35:01.838Z,60.50
2018-09-22T15:38:04.745Z,61.40
2018-09-22T15:41:07.665Z,61.80
2018-09-22T15:44:10.699Z,62.90
2018-09-22T15:47:13.653Z,63.50
2018-09-22T15:50:16.633Z,61.10
2018-09-22T15:53:19.565Z,62.10
2018-09-22T15:56:22.488Z,62.00
2018-09-22T15:59:25.429Z,63.00
2018-09-22T16:02:28.365Z,63.40
2018-09-22T16:05:31.425Z,61.60
2018-09-22T16:08:34.411Z,64.50
2018-09-22T16:11:37.566Z,63.50
2018-09-22T16:14:40.497Z,64.20
2018-09-22T16:17:43.477Z,65.10
2018-09-22T16:20:46.476Z,66.30
2018-09-22T16:23:49.401Z,65.80
2018-09-22T16:26:52.329Z,66.30
2018-09-22T16:29:55.227Z,65.80
2018-09-22T16:32:58.079Z,65.80
2018-09-22T16:36:01.028Z,65.70
2018-09-22T16:39:06.249Z,67.50
2018-09-22T16:42:09.275Z,67.40
2018-09-22T16:45:12.285Z,67.20
2018-09-22T16:48:15.876Z,66.60
2018-09-22T16:51:18.870Z,66.90
2018-09-22T16:54:22.394Z,68.00
2018-09-22T16:57:25.391Z,67.70
2018-09-22T17:00:29.390Z,68.10
2018-09-22T17:03:32.397Z,68.20
2018-09-22T17:06:35.299Z,68.60
2018-09-22T17:09:38.350Z,67.40
2018-09-22T17:12:41.294Z,68.60
2018-09-22T17:15:44.198Z,68.60
2018-09-22T17:18:47.109Z,67.80
2018-09-22T17:21:50.038Z,68.00
2018-09-22T17:24:52.979Z,68.60
2018-09-22T17:27:55.878Z,68.60
2018-09-22T17:30:58.793Z,66.30
2018-09-22T17:34:01.701Z,68.60
2018-09-22T17:37:04.412Z,67.50
2018-09-22T17:40:07.333Z,68.40
2018-09-22T17:43:10.301Z,67.20
2018-09-22T17:46:13.739Z,67.70
2018-09-22T17:49:16.673Z,68.10
2018-09-22T17:52:19.653Z,68.10
2018-09-22T17:55:22.604Z,67.00
2018-09-22T17:58:25.575Z,67.00
2018-09-22T18:01:28.827Z,67.00
2018-09-22T18:04:31.809Z,65.90
2018-09-22T18:07:34.812Z,66.70
2018-09-22T18:10:37.912Z,65.80
2018-09-22T18:13:40.983Z,65.20
2018-09-22T18:16:43.974Z,66.10
2018-09-22T18:19:46.882Z,65.60
2018-09-22T18:22:49.843Z,66.60
2018-09-22T18:25:52.937Z,66.80
2018-09-22T18:28:56.078Z,66.40
2018-09-22T18:31:59.007Z,66.90
2018-09-22T18:35:01.914Z,66.80
2018-09-22T18:38:32.685Z,66.90
2018-09-22T18:41:35.815Z,67.40
2018-09-22T18:44:38.761Z,66.80
2018-09-22T18:47:41.792Z,67.70
2018-09-22T18:50:44.779Z,67.90
2018-09-22T18:53:47.773Z,67.80
2018-09-22T18:56:50.763Z,68.10
2018-09-22T18:59:53.733Z,68.20
2018-09-22T19:02:56.761Z,68.30
2018-09-22T19:05:59.767Z,67.80
2018-09-22T19:09:04.293Z,68.10
2018-09-22T19:12:07.341Z,68.50
2018-09-22T19:15:21.609Z,68.50
2018-09-22T19:19:02.416Z,68.70
2018-09-22T19:22:06.947Z,69.00
2018-09-22T19:25:13.100Z,69.20
2018-09-22T19:28:19.546Z,69.40
2018-09-22T19:31:26.194Z,69.10
2018-09-22T19:34:32.713Z,68.90
2018-09-22T19:37:42.537Z,69.30
2018-09-22T19:40:50.006Z,69.40
2018-09-22T19:43:57.010Z,69.90
2018-09-22T19:47:03.761Z,69.60
2018-09-22T19:50:08.994Z,69.90
2018-09-22T19:53:12.830Z,69.80
2018-09-22T19:56:15.824Z,69.80
2018-09-22T19:59:18.746Z,70.40
2018-09-22T20:02:21.737Z,70.30
2018-09-22T20:05:24.762Z,70.70
2018-09-22T20:08:27.838Z,70.40
2018-09-22T20:11:30.828Z,70.90
2018-09-22T20:14:33.757Z,72.00
2018-09-22T20:17:36.991Z,71.20
2018-09-22T20:20:39.900Z,61.70
2018-09-22T20:23:42.880Z,64.00
2018-09-22T20:26:45.852Z,67.50
2018-09-22T20:29:48.893Z,68.50
2018-09-22T20:34:02.098Z,70.20
2018-09-22T20:37:05.239Z,71.10
2018-09-22T20:40:08.210Z,71.60
2018-09-22T20:43:11.221Z,72.00
2018-09-22T20:46:14.364Z,72.80
2018-09-22T20:49:17.374Z,72.40
2018-09-22T20:52:20.370Z,72.00
2018-09-22T20:55:23.362Z,72.60
2018-09-22T20:58:26.369Z,72.10
2018-09-22T21:01:29.261Z,73.10
2018-09-22T21:04:32.192Z,72.80
2018-09-22T21:07:35.596Z,72.80
2018-09-22T21:10:38.542Z,72.20
2018-09-22T21:13:41.533Z,72.10
2018-09-22T21:16:44.462Z,71.90
2018-09-22T21:19:47.386Z,72.30
2018-09-22T21:22:50.565Z,71.90
2018-09-22T21:25:54.347Z,72.40
2018-09-22T21:28:58.480Z,72.10
2018-09-22T21:32:02.445Z,71.80
2018-09-22T21:35:06.344Z,71.90
2018-09-22T21:38:09.325Z,71.70
2018-09-22T21:41:12.276Z,72.00
2018-09-22T21:44:15.205Z,71.50
2018-09-22T21:47:18.140Z,72.10
2018-09-22T21:50:21.050Z,71.30
2018-09-22T21:53:24.233Z,71.60
2018-09-22T21:56:27.198Z,72.10
2018-09-22T21:59:30.172Z,72.00
2018-09-22T22:02:33.101Z,72.30
2018-09-22T22:05:36.061Z,72.50
2018-09-22T22:08:39.012Z,72.30
2018-09-22T22:11:41.968Z,72.90
2018-09-22T22:14:44.913Z,71.60
2018-09-22T22:17:47.851Z,71.80
2018-09-22T22:20:50.781Z,71.40
2018-09-22T22:23:53.740Z,71.50
2018-09-22T22:26:56.729Z,71.30
2018-09-22T22:29:59.645Z,71.30
2018-09-22T22:33:02.585Z,71.60
2018-09-22T22:36:05.645Z,70.40
2018-09-22T22:39:08.636Z,71.00
2018-09-22T22:42:11.522Z,71.60
2018-09-22T22:45:14.449Z,72.40
2018-09-22T22:48:17.380Z,72.70
2018-09-22T22:51:20.345Z,72.00
2018-09-22T22:54:23.301Z,72.40
2018-09-22T22:57:26.281Z,71.10
2018-09-22T23:00:29.204Z,72.00
2018-09-22T23:03:32.160Z,71.60
2018-09-22T23:06:35.115Z,71.30
2018-09-22T23:09:38.075Z,71.40
2018-09-22T23:12:40.966Z,70.80
2018-09-22T23:15:43.926Z,70.70
2018-09-22T23:18:46.881Z,71.10
2018-09-22T23:21:49.846Z,71.00
2018-09-22T23:24:52.757Z,71.50
2018-09-22T23:27:55.714Z,72.50
2018-09-22T23:30:58.634Z,70.90
2018-09-22T23:34:01.546Z,70.70
2018-09-22T23:37:04.638Z,72.10
2018-09-22T23:40:07.647Z,71.20
2018-09-22T23:43:10.569Z,72.00
2018-09-22T23:46:13.530Z,72.10
2018-09-22T23:49:16.466Z,71.90
2018-09-22T23:52:19.526Z,71.80
2018-09-22T23:55:22.464Z,72.40
2018-09-22T23:58:25.454Z,72.50
